sensor_id;sensor_type;location;lat;lon;timestamp;temperature;humidity
67901;DHT22;54700;51.796;10.956;2023-07-31T00:00:40;17.20;80.10
67901;DHT22;54700;51.796;10.956;2023-07-31T00:03:07;17.20;80.30
67901;DHT22;54700;51.796;10.956;2023-07-31T00:05:34;17.20;80.10
67901;DHT22;54700;51.796;10.956;2023-07-31T00:08:01;17.20;80.40
67901;DHT22;54700;51.796;10.956;2023-07-31T00:10:28;17.10;81.10
67901;DHT22;54700;51.796;10.956;2023-07-31T00:12:54;17.10;81.70
67901;DHT22;54700;51.796;10.956;2023-07-31T00:15:21;17.10;81.80
67901;DHT22;54700;51.796;10.956;2023-07-31T00:17:50;17.00;82.20
67901;DHT22;54700;51.796;10.956;2023-07-31T00:20:16;17.00;82.20
67901;DHT22;54700;51.796;10.956;2023-07-31T00:22:43;17.00;82.70
67901;DHT22;54700;51.796;10.956;2023-07-31T00:25:10;16.90;82.70
67901;DHT22;54700;51.796;10.956;2023-07-31T00:27:37;16.90;83.00
67901;DHT22;54700;51.796;10.956;2023-07-31T00:30:04;16.90;83.00
67901;DHT22;54700;51.796;10.956;2023-07-31T00:32:32;16.90;83.30
67901;DHT22;54700;51.796;10.956;2023-07-31T00:35:00;16.90;84.10
67901;DHT22;54700;51.796;10.956;2023-07-31T00:37:27;16.90;83.30
67901;DHT22;54700;51.796;10.956;2023-07-31T00:39:54;16.90;83.70
67901;DHT22;54700;51.796;10.956;2023-07-31T00:42:20;16.90;85.10
67901;DHT22;54700;51.796;10.956;2023-07-31T00:44:47;16.90;85.50
67901;DHT22;54700;51.796;10.956;2023-07-31T00:47:14;16.80;87.00
67901;DHT22;54700;51.796;10.956;2023-07-31T00:49:41;16.70;89.10
67901;DHT22;54700;51.796;10.956;2023-07-31T00:52:09;16.70;90.20
67901;DHT22;54700;51.796;10.956;2023-07-31T00:54:36;16.60;90.40
67901;DHT22;54700;51.796;10.956;2023-07-31T00:57:04;16.60;91.00
67901;DHT22;54700;51.796;10.956;2023-07-31T00:59:33;16.50;91.30
67901;DHT22;54700;51.796;10.956;2023-07-31T01:01:59;16.40;91.80
67901;DHT22;54700;51.796;10.956;2023-07-31T01:04:26;16.40;92.20
67901;DHT22;54700;51.796;10.956;2023-07-31T01:06:55;16.30;92.60
67901;DHT22;54700;51.796;10.956;2023-07-31T01:09:32;16.30;92.50
67901;DHT22;54700;51.796;10.956;2023-07-31T01:12:07;16.20;93.20
67901;DHT22;54700;51.796;10.956;2023-07-31T01:14:39;16.20;93.50
67901;DHT22;54700;51.796;10.956;2023-07-31T01:17:06;16.10;93.80
67901;DHT22;54700;51.796;10.956;2023-07-31T01:19:32;16.10;94.00
67901;DHT22;54700;51.796;10.956;2023-07-31T01:22:15;16.10;94.00
67901;DHT22;54700;51.796;10.956;2023-07-31T01:25:03;16.10;94.10
67901;DHT22;54700;51.796;10.956;2023-07-31T01:27:44;16.00;94.30
67901;DHT22;54700;51.796;10.956;2023-07-31T01:30:20;16.10;94.90
67901;DHT22;54700;51.796;10.956;2023-07-31T01:32:51;16.00;95.30
67901;DHT22;54700;51.796;10.956;2023-07-31T01:35:21;16.00;95.60
67901;DHT22;54700;51.796;10.956;2023-07-31T01:37:48;15.90;96.00
67901;DHT22;54700;51.796;10.956;2023-07-31T01:40:14;15.90;96.30
67901;DHT22;54700;51.796;10.956;2023-07-31T01:42:41;15.90;96.50
67901;DHT22;54700;51.796;10.956;2023-07-31T01:45:10;15.80;96.80
67901;DHT22;54700;51.796;10.956;2023-07-31T01:47:38;15.80;97.40
67901;DHT22;54700;51.796;10.956;2023-07-31T01:50:05;15.80;98.20
67901;DHT22;54700;51.796;10.956;2023-07-31T01:52:32;15.70;98.60
67901;DHT22;54700;51.796;10.956;2023-07-31T01:54:59;15.70;99.00
67901;DHT22;54700;51.796;10.956;2023-07-31T01:57:26;15.60;99.00
67901;DHT22;54700;51.796;10.956;2023-07-31T01:59:53;15.60;99.50
67901;DHT22;54700;51.796;10.956;2023-07-31T02:02:22;15.50;99.90
67901;DHT22;54700;51.796;10.956;2023-07-31T02:04:49;15.50;99.90
67901;DHT22;54700;51.796;10.956;2023-07-31T02:07:16;15.50;99.90
67901;DHT22;54700;51.796;10.956;2023-07-31T02:09:42;15.40;99.90
67901;DHT22;54700;51.796;10.956;2023-07-31T02:12:09;15.40;99.90
67901;DHT22;54700;51.796;10.956;2023-07-31T02:14:36;15.40;99.90
67901;DHT22;54700;51.796;10.956;2023-07-31T02:17:03;15.40;99.90
67901;DHT22;54700;51.796;10.956;2023-07-31T02:19:31;15.40;99.90
67901;DHT22;54700;51.796;10.956;2023-07-31T02:21:58;15.40;99.90
67901;DHT22;54700;51.796;10.956;2023-07-31T02:24:25;15.40;99.90
67901;DHT22;54700;51.796;10.956;2023-07-31T02:26:52;15.40;99.90
67901;DHT22;54700;51.796;10.956;2023-07-31T02:29:19;15.40;99.90
67901;DHT22;54700;51.796;10.956;2023-07-31T02:31:45;15.40;99.90
67901;DHT22;54700;51.796;10.956;2023-07-31T02:34:12;15.40;99.90
67901;DHT22;54700;51.796;10.956;2023-07-31T02:36:40;15.40;99.90
67901;DHT22;54700;51.796;10.956;2023-07-31T02:39:07;15.40;99.90
67901;DHT22;54700;51.796;10.956;2023-07-31T02:41:35;15.40;99.90
67901;DHT22;54700;51.796;10.956;2023-07-31T02:44:02;15.30;99.90
67901;DHT22;54700;51.796;10.956;2023-07-31T02:46:29;15.40;99.90
67901;DHT22;54700;51.796;10.956;2023-07-31T02:48:56;15.40;99.90
67901;DHT22;54700;51.796;10.956;2023-07-31T02:51:23;15.40;99.90
67901;DHT22;54700;51.796;10.956;2023-07-31T02:53:52;15.40;99.90
67901;DHT22;54700;51.796;10.956;2023-07-31T02:56:18;15.40;99.90
67901;DHT22;54700;51.796;10.956;2023-07-31T02:58:45;15.40;99.90
67901;DHT22;54700;51.796;10.956;2023-07-31T03:01:12;15.40;99.90
67901;DHT22;54700;51.796;10.956;2023-07-31T03:03:40;15.40;99.90
67901;DHT22;54700;51.796;10.956;2023-07-31T03:06:08;15.40;99.90
67901;DHT22;54700;51.796;10.956;2023-07-31T03:08:35;15.50;99.90
67901;DHT22;54700;51.796;10.956;2023-07-31T03:11:03;15.40;99.90
67901;DHT22;54700;51.796;10.956;2023-07-31T03:13:30;15.50;99.90
67901;DHT22;54700;51.796;10.956;2023-07-31T03:15:57;15.40;99.90
67901;DHT22;54700;51.796;10.956;2023-07-31T03:18:23;15.40;99.90
67901;DHT22;54700;51.796;10.956;2023-07-31T03:20:50;15.40;99.90
67901;DHT22;54700;51.796;10.956;2023-07-31T03:23:17;15.50;99.90
67901;DHT22;54700;51.796;10.956;2023-07-31T03:25:55;15.50;99.90
67901;DHT22;54700;51.796;10.956;2023-07-31T03:28:24;15.40;99.90
67901;DHT22;54700;51.796;10.956;2023-07-31T03:30:51;15.40;99.90
67901;DHT22;54700;51.796;10.956;2023-07-31T03:33:18;15.40;99.90
67901;DHT22;54700;51.796;10.956;2023-07-31T03:35:45;15.40;99.90
67901;DHT22;54700;51.796;10.956;2023-07-31T03:38:13;15.40;99.90
67901;DHT22;54700;51.796;10.956;2023-07-31T03:40:40;15.40;99.90
67901;DHT22;54700;51.796;10.956;2023-07-31T03:43:07;15.40;99.90
67901;DHT22;54700;51.796;10.956;2023-07-31T03:45:35;15.40;99.90
67901;DHT22;54700;51.796;10.956;2023-07-31T03:48:02;15.40;99.90
67901;DHT22;54700;51.796;10.956;2023-07-31T03:50:30;15.40;99.90
67901;DHT22;54700;51.796;10.956;2023-07-31T03:52:57;15.40;99.90
67901;DHT22;54700;51.796;10.956;2023-07-31T03:55:24;15.40;99.90
67901;DHT22;54700;51.796;10.956;2023-07-31T03:57:51;15.40;99.90
67901;DHT22;54700;51.796;10.956;2023-07-31T04:00:18;15.50;99.90
67901;DHT22;54700;51.796;10.956;2023-07-31T04:02:47;15.40;99.90
67901;DHT22;54700;51.796;10.956;2023-07-31T04:05:14;15.50;99.90
67901;DHT22;54700;51.796;10.956;2023-07-31T04:07:41;15.50;99.90
67901;DHT22;54700;51.796;10.956;2023-07-31T04:10:08;15.50;99.90
67901;DHT22;54700;51.796;10.956;2023-07-31T04:12:35;15.50;99.90
67901;DHT22;54700;51.796;10.956;2023-07-31T04:15:02;15.50;99.90
67901;DHT22;54700;51.796;10.956;2023-07-31T04:17:31;15.50;99.90
67901;DHT22;54700;51.796;10.956;2023-07-31T04:19:59;15.50;99.90
67901;DHT22;54700;51.796;10.956;2023-07-31T04:22:27;15.50;99.90
67901;DHT22;54700;51.796;10.956;2023-07-31T04:24:54;15.50;99.90
67901;DHT22;54700;51.796;10.956;2023-07-31T04:27:21;15.50;99.90
67901;DHT22;54700;51.796;10.956;2023-07-31T04:29:47;15.60;99.90
67901;DHT22;54700;51.796;10.956;2023-07-31T04:32:14;15.60;99.90
67901;DHT22;54700;51.796;10.956;2023-07-31T04:34:42;15.60;99.90
67901;DHT22;54700;51.796;10.956;2023-07-31T04:37:10;15.60;99.90
67901;DHT22;54700;51.796;10.956;2023-07-31T04:39:37;15.60;99.90
67901;DHT22;54700;51.796;10.956;2023-07-31T04:42:04;15.70;99.90
67901;DHT22;54700;51.796;10.956;2023-07-31T04:44:31;15.70;99.90
67901;DHT22;54700;51.796;10.956;2023-07-31T04:46:58;15.70;99.90
67901;DHT22;54700;51.796;10.956;2023-07-31T04:49:25;15.80;99.90
67901;DHT22;54700;51.796;10.956;2023-07-31T04:51:51;15.80;99.90
67901;DHT22;54700;51.796;10.956;2023-07-31T04:54:20;15.80;99.90
67901;DHT22;54700;51.796;10.956;2023-07-31T04:56:47;15.80;99.90
67901;DHT22;54700;51.796;10.956;2023-07-31T04:59:13;15.80;99.80
67901;DHT22;54700;51.796;10.956;2023-07-31T05:01:40;15.90;99.90
67901;DHT22;54700;51.796;10.956;2023-07-31T05:04:08;15.90;99.50
67901;DHT22;54700;51.796;10.956;2023-07-31T05:06:35;16.00;99.40
67901;DHT22;54700;51.796;10.956;2023-07-31T05:09:02;16.00;99.00
67901;DHT22;54700;51.796;10.956;2023-07-31T05:11:32;16.00;99.20
67901;DHT22;54700;51.796;10.956;2023-07-31T05:13:59;16.10;99.20
67901;DHT22;54700;51.796;10.956;2023-07-31T05:16:26;16.10;99.10
67901;DHT22;54700;51.796;10.956;2023-07-31T05:18:53;16.20;99.30
67901;DHT22;54700;51.796;10.956;2023-07-31T05:21:20;16.10;99.30
67901;DHT22;54700;51.796;10.956;2023-07-31T05:23:47;16.20;99.20
67901;DHT22;54700;51.796;10.956;2023-07-31T05:26:14;16.20;99.40
67901;DHT22;54700;51.796;10.956;2023-07-31T05:28:42;16.20;98.60
67901;DHT22;54700;51.796;10.956;2023-07-31T05:31:09;16.20;98.80
67901;DHT22;54700;51.796;10.956;2023-07-31T05:33:36;16.20;98.90
67901;DHT22;54700;51.796;10.956;2023-07-31T05:36:03;16.20;99.20
67901;DHT22;54700;51.796;10.956;2023-07-31T05:38:30;16.20;99.30
67901;DHT22;54700;51.796;10.956;2023-07-31T05:40:57;16.30;99.00
67901;DHT22;54700;51.796;10.956;2023-07-31T05:43:24;16.30;99.20
67901;DHT22;54700;51.796;10.956;2023-07-31T05:45:52;16.30;99.00
67901;DHT22;54700;51.796;10.956;2023-07-31T05:48:19;16.30;99.30
67901;DHT22;54700;51.796;10.956;2023-07-31T05:50:46;16.30;99.40
67901;DHT22;54700;51.796;10.956;2023-07-31T05:53:13;16.30;98.60
67901;DHT22;54700;51.796;10.956;2023-07-31T05:55:40;16.30;98.70
67901;DHT22;54700;51.796;10.956;2023-07-31T05:58:07;16.40;99.30
67901;DHT22;54700;51.796;10.956;2023-07-31T06:00:33;16.40;98.40
67901;DHT22;54700;51.796;10.956;2023-07-31T06:03:04;16.40;97.90
67901;DHT22;54700;51.796;10.956;2023-07-31T06:05:31;16.40;98.10
67901;DHT22;54700;51.796;10.956;2023-07-31T06:07:58;16.40;97.40
67901;DHT22;54700;51.796;10.956;2023-07-31T06:10:25;16.50;97.50
67901;DHT22;54700;51.796;10.956;2023-07-31T06:12:52;16.50;97.20
67901;DHT22;54700;51.796;10.956;2023-07-31T06:15:19;16.60;96.90
67901;DHT22;54700;51.796;10.956;2023-07-31T06:17:46;16.60;96.30
67901;DHT22;54700;51.796;10.956;2023-07-31T06:20:14;16.60;96.20
67901;DHT22;54700;51.796;10.956;2023-07-31T06:22:41;16.70;96.20
67901;DHT22;54700;51.796;10.956;2023-07-31T06:25:08;16.70;95.80
67901;DHT22;54700;51.796;10.956;2023-07-31T06:27:35;16.80;95.90
67901;DHT22;54700;51.796;10.956;2023-07-31T06:30:02;16.80;95.30
67901;DHT22;54700;51.796;10.956;2023-07-31T06:32:30;16.80;95.80
67901;DHT22;54700;51.796;10.956;2023-07-31T06:34:57;16.90;96.10
67901;DHT22;54700;51.796;10.956;2023-07-31T06:37:25;16.90;96.10
67901;DHT22;54700;51.796;10.956;2023-07-31T06:39:52;17.00;96.00
67901;DHT22;54700;51.796;10.956;2023-07-31T06:42:19;17.10;95.90
67901;DHT22;54700;51.796;10.956;2023-07-31T06:44:46;17.10;95.30
67901;DHT22;54700;51.796;10.956;2023-07-31T06:47:13;17.10;95.10
67901;DHT22;54700;51.796;10.956;2023-07-31T06:49:40;17.10;94.90
67901;DHT22;54700;51.796;10.956;2023-07-31T06:52:07;17.10;94.60
67901;DHT22;54700;51.796;10.956;2023-07-31T06:54:36;17.10;94.30
67901;DHT22;54700;51.796;10.956;2023-07-31T06:57:03;17.20;94.70
67901;DHT22;54700;51.796;10.956;2023-07-31T06:59:30;17.20;94.20
67901;DHT22;54700;51.796;10.956;2023-07-31T07:01:57;17.20;93.90
67901;DHT22;54700;51.796;10.956;2023-07-31T07:04:24;17.20;93.80
67901;DHT22;54700;51.796;10.956;2023-07-31T07:06:51;17.30;93.70
67901;DHT22;54700;51.796;10.956;2023-07-31T07:09:18;17.30;93.40
67901;DHT22;54700;51.796;10.956;2023-07-31T07:11:47;17.30;92.70
67901;DHT22;54700;51.796;10.956;2023-07-31T07:14:13;17.40;92.10
67901;DHT22;54700;51.796;10.956;2023-07-31T07:16:40;17.40;92.30
67901;DHT22;54700;51.796;10.956;2023-07-31T07:19:07;17.50;91.80
67901;DHT22;54700;51.796;10.956;2023-07-31T07:21:34;17.50;91.50
67901;DHT22;54700;51.796;10.956;2023-07-31T07:24:01;17.60;91.40
67901;DHT22;54700;51.796;10.956;2023-07-31T07:26:28;17.70;90.80
67901;DHT22;54700;51.796;10.956;2023-07-31T07:28:57;17.70;90.60
67901;DHT22;54700;51.796;10.956;2023-07-31T07:31:26;17.90;90.80
67901;DHT22;54700;51.796;10.956;2023-07-31T07:33:53;17.90;90.50
67901;DHT22;54700;51.796;10.956;2023-07-31T07:36:20;18.00;90.00
67901;DHT22;54700;51.796;10.956;2023-07-31T07:38:47;18.10;87.20
67901;DHT22;54700;51.796;10.956;2023-07-31T07:41:14;18.20;88.20
67901;DHT22;54700;51.796;10.956;2023-07-31T07:43:41;18.20;85.50
67901;DHT22;54700;51.796;10.956;2023-07-31T07:46:09;18.20;87.20
67901;DHT22;54700;51.796;10.956;2023-07-31T07:48:37;18.20;86.80
67901;DHT22;54700;51.796;10.956;2023-07-31T07:51:03;18.10;85.60
67901;DHT22;54700;51.796;10.956;2023-07-31T07:53:30;18.10;87.00
67901;DHT22;54700;51.796;10.956;2023-07-31T07:55:57;18.10;87.60
67901;DHT22;54700;51.796;10.956;2023-07-31T07:58:24;18.10;87.00
67901;DHT22;54700;51.796;10.956;2023-07-31T08:00:51;18.10;87.60
67901;DHT22;54700;51.796;10.956;2023-07-31T08:03:19;18.10;88.00
67901;DHT22;54700;51.796;10.956;2023-07-31T08:05:46;18.20;88.00
67901;DHT22;54700;51.796;10.956;2023-07-31T08:08:14;18.30;87.30
67901;DHT22;54700;51.796;10.956;2023-07-31T08:10:42;18.30;86.00
67901;DHT22;54700;51.796;10.956;2023-07-31T08:13:09;18.40;86.30
67901;DHT22;54700;51.796;10.956;2023-07-31T08:15:37;18.40;85.50
67901;DHT22;54700;51.796;10.956;2023-07-31T08:18:04;18.40;86.10
67901;DHT22;54700;51.796;10.956;2023-07-31T08:20:32;18.50;86.50
67901;DHT22;54700;51.796;10.956;2023-07-31T08:22:59;18.50;84.50
67901;DHT22;54700;51.796;10.956;2023-07-31T08:25:26;18.60;85.10
67901;DHT22;54700;51.796;10.956;2023-07-31T08:27:53;18.60;84.80
67901;DHT22;54700;51.796;10.956;2023-07-31T08:30:20;18.60;84.50
67901;DHT22;54700;51.796;10.956;2023-07-31T08:32:48;18.60;84.00
67901;DHT22;54700;51.796;10.956;2023-07-31T08:35:15;18.60;84.00
67901;DHT22;54700;51.796;10.956;2023-07-31T08:37:45;18.70;84.60
67901;DHT22;54700;51.796;10.956;2023-07-31T08:40:12;18.70;84.70
67901;DHT22;54700;51.796;10.956;2023-07-31T08:42:43;18.60;86.00
67901;DHT22;54700;51.796;10.956;2023-07-31T08:45:12;18.60;85.80
67901;DHT22;54700;51.796;10.956;2023-07-31T08:47:42;18.60;86.80
67901;DHT22;54700;51.796;10.956;2023-07-31T08:50:13;18.50;86.70
67901;DHT22;54700;51.796;10.956;2023-07-31T08:52:41;18.60;87.10
67901;DHT22;54700;51.796;10.956;2023-07-31T08:55:09;18.50;86.50
67901;DHT22;54700;51.796;10.956;2023-07-31T08:57:37;18.50;87.30
67901;DHT22;54700;51.796;10.956;2023-07-31T09:00:05;18.50;87.40
67901;DHT22;54700;51.796;10.956;2023-07-31T09:02:37;18.50;87.10
67901;DHT22;54700;51.796;10.956;2023-07-31T09:05:08;18.50;88.60
67901;DHT22;54700;51.796;10.956;2023-07-31T09:07:40;18.50;89.30
67901;DHT22;54700;51.796;10.956;2023-07-31T09:10:12;18.60;89.40
67901;DHT22;54700;51.796;10.956;2023-07-31T09:12:40;18.60;90.00
67901;DHT22;54700;51.796;10.956;2023-07-31T09:15:07;18.60;89.50
67901;DHT22;54700;51.796;10.956;2023-07-31T09:17:35;18.60;90.20
67901;DHT22;54700;51.796;10.956;2023-07-31T09:20:12;18.70;90.30
67901;DHT22;54700;51.796;10.956;2023-07-31T09:22:40;18.60;90.00
67901;DHT22;54700;51.796;10.956;2023-07-31T09:25:15;18.60;89.50
67901;DHT22;54700;51.796;10.956;2023-07-31T09:27:46;18.60;90.00
67901;DHT22;54700;51.796;10.956;2023-07-31T09:30:14;18.70;90.40
67901;DHT22;54700;51.796;10.956;2023-07-31T09:32:42;18.80;90.10
67901;DHT22;54700;51.796;10.956;2023-07-31T09:35:19;18.90;90.30
67901;DHT22;54700;51.796;10.956;2023-07-31T09:37:50;18.90;89.60
67901;DHT22;54700;51.796;10.956;2023-07-31T09:40:29;19.00;90.20
67901;DHT22;54700;51.796;10.956;2023-07-31T09:42:57;19.10;89.70
67901;DHT22;54700;51.796;10.956;2023-07-31T09:45:25;19.20;89.70
67901;DHT22;54700;51.796;10.956;2023-07-31T09:47:53;19.40;88.70
67901;DHT22;54700;51.796;10.956;2023-07-31T09:50:20;19.60;88.20
67901;DHT22;54700;51.796;10.956;2023-07-31T09:52:48;19.80;87.70
67901;DHT22;54700;51.796;10.956;2023-07-31T09:55:15;19.80;85.30
67901;DHT22;54700;51.796;10.956;2023-07-31T09:57:45;19.80;85.10
67901;DHT22;54700;51.796;10.956;2023-07-31T10:00:14;19.80;85.60
67901;DHT22;54700;51.796;10.956;2023-07-31T10:02:43;19.70;85.60
67901;DHT22;54700;51.796;10.956;2023-07-31T10:05:12;19.70;85.90
67901;DHT22;54700;51.796;10.956;2023-07-31T10:07:41;19.50;86.00
67901;DHT22;54700;51.796;10.956;2023-07-31T10:10:11;19.30;86.00
67901;DHT22;54700;51.796;10.956;2023-07-31T10:12:41;19.00;90.30
67901;DHT22;54700;51.796;10.956;2023-07-31T10:15:11;18.90;91.50
67901;DHT22;54700;51.796;10.956;2023-07-31T10:17:39;18.70;92.00
67901;DHT22;54700;51.796;10.956;2023-07-31T10:20:06;18.70;92.30
67901;DHT22;54700;51.796;10.956;2023-07-31T10:22:35;18.60;92.90
67901;DHT22;54700;51.796;10.956;2023-07-31T10:25:02;18.60;93.10
67901;DHT22;54700;51.796;10.956;2023-07-31T10:27:30;18.60;92.80
67901;DHT22;54700;51.796;10.956;2023-07-31T10:29:57;18.60;92.90
67901;DHT22;54700;51.796;10.956;2023-07-31T10:32:27;18.60;93.40
67901;DHT22;54700;51.796;10.956;2023-07-31T10:34:55;18.60;92.50
67901;DHT22;54700;51.796;10.956;2023-07-31T10:37:24;18.60;92.30
67901;DHT22;54700;51.796;10.956;2023-07-31T10:39:55;18.70;92.10
67901;DHT22;54700;51.796;10.956;2023-07-31T10:42:27;18.80;92.50
67901;DHT22;54700;51.796;10.956;2023-07-31T10:44:59;18.80;93.20
67901;DHT22;54700;51.796;10.956;2023-07-31T10:47:29;18.80;91.60
67901;DHT22;54700;51.796;10.956;2023-07-31T10:50:12;18.90;91.90
67901;DHT22;54700;51.796;10.956;2023-07-31T10:52:46;18.90;91.90
67901;DHT22;54700;51.796;10.956;2023-07-31T10:55:31;19.00;91.40
67901;DHT22;54700;51.796;10.956;2023-07-31T10:58:05;19.10;91.40
67901;DHT22;54700;51.796;10.956;2023-07-31T11:00:33;19.10;90.90
67901;DHT22;54700;51.796;10.956;2023-07-31T11:03:04;19.10;89.80
67901;DHT22;54700;51.796;10.956;2023-07-31T11:05:41;19.10;90.30
67901;DHT22;54700;51.796;10.956;2023-07-31T11:08:10;19.10;89.20
67901;DHT22;54700;51.796;10.956;2023-07-31T11:10:38;19.10;88.90
67901;DHT22;54700;51.796;10.956;2023-07-31T11:13:05;19.20;89.30
67901;DHT22;54700;51.796;10.956;2023-07-31T11:15:33;19.20;89.50
67901;DHT22;54700;51.796;10.956;2023-07-31T11:18:00;19.20;87.20
67901;DHT22;54700;51.796;10.956;2023-07-31T11:20:30;19.20;89.30
67901;DHT22;54700;51.796;10.956;2023-07-31T11:22:59;19.20;88.90
67901;DHT22;54700;51.796;10.956;2023-07-31T11:25:28;19.20;87.80
67901;DHT22;54700;51.796;10.956;2023-07-31T11:27:56;19.20;88.70
67901;DHT22;54700;51.796;10.956;2023-07-31T11:30:23;19.30;86.90
67901;DHT22;54700;51.796;10.956;2023-07-31T11:32:50;19.30;85.40
67901;DHT22;54700;51.796;10.956;2023-07-31T11:35:17;19.40;86.40
67901;DHT22;54700;51.796;10.956;2023-07-31T11:37:46;19.40;87.00
67901;DHT22;54700;51.796;10.956;2023-07-31T11:40:14;19.40;86.20
67901;DHT22;54700;51.796;10.956;2023-07-31T11:42:40;19.40;84.10
67901;DHT22;54700;51.796;10.956;2023-07-31T11:45:08;19.40;86.00
67901;DHT22;54700;51.796;10.956;2023-07-31T11:47:35;19.40;86.10
67901;DHT22;54700;51.796;10.956;2023-07-31T11:50:04;19.40;85.50
67901;DHT22;54700;51.796;10.956;2023-07-31T11:52:34;19.30;85.50
67901;DHT22;54700;51.796;10.956;2023-07-31T11:55:08;19.40;85.70
67901;DHT22;54700;51.796;10.956;2023-07-31T11:57:37;19.40;84.60
67901;DHT22;54700;51.796;10.956;2023-07-31T12:00:06;19.50;85.10
67901;DHT22;54700;51.796;10.956;2023-07-31T12:02:36;19.60;84.20
67901;DHT22;54700;51.796;10.956;2023-07-31T12:05:05;19.90;85.60
67901;DHT22;54700;51.796;10.956;2023-07-31T12:07:46;20.10;82.80
67901;DHT22;54700;51.796;10.956;2023-07-31T12:10:25;20.30;80.00
67901;DHT22;54700;51.796;10.956;2023-07-31T12:13:00;20.50;80.30
67901;DHT22;54700;51.796;10.956;2023-07-31T12:15:29;20.50;77.40
67901;DHT22;54700;51.796;10.956;2023-07-31T12:18:04;20.40;76.90
67901;DHT22;54700;51.796;10.956;2023-07-31T12:20:32;20.50;77.30
67901;DHT22;54700;51.796;10.956;2023-07-31T12:23:00;20.60;75.30
67901;DHT22;54700;51.796;10.956;2023-07-31T12:25:33;20.80;76.30
67901;DHT22;54700;51.796;10.956;2023-07-31T12:28:04;21.20;75.50
67901;DHT22;54700;51.796;10.956;2023-07-31T12:30:36;21.40;71.60
67901;DHT22;54700;51.796;10.956;2023-07-31T12:33:04;21.50;69.80
67901;DHT22;54700;51.796;10.956;2023-07-31T12:35:40;21.60;72.30
67901;DHT22;54700;51.796;10.956;2023-07-31T12:38:09;21.80;70.30
67901;DHT22;54700;51.796;10.956;2023-07-31T12:40:38;21.90;70.30
67901;DHT22;54700;51.796;10.956;2023-07-31T12:43:06;22.10;69.20
67901;DHT22;54700;51.796;10.956;2023-07-31T12:45:35;22.20;67.60
67901;DHT22;54700;51.796;10.956;2023-07-31T12:48:02;22.30;68.60
67901;DHT22;54700;51.796;10.956;2023-07-31T12:50:30;22.30;67.10
67901;DHT22;54700;51.796;10.956;2023-07-31T12:52:57;22.20;68.60
67901;DHT22;54700;51.796;10.956;2023-07-31T12:55:24;22.10;65.90
67901;DHT22;54700;51.796;10.956;2023-07-31T12:57:52;21.90;67.50
67901;DHT22;54700;51.796;10.956;2023-07-31T13:00:21;21.90;69.00
67901;DHT22;54700;51.796;10.956;2023-07-31T13:02:48;21.80;69.40
67901;DHT22;54700;51.796;10.956;2023-07-31T13:05:15;21.40;69.30
67901;DHT22;54700;51.796;10.956;2023-07-31T13:07:42;21.10;71.80
67901;DHT22;54700;51.796;10.956;2023-07-31T13:10:09;21.00;73.30
67901;DHT22;54700;51.796;10.956;2023-07-31T13:12:36;20.80;75.60
67901;DHT22;54700;51.796;10.956;2023-07-31T13:15:05;20.90;75.80
67901;DHT22;54700;51.796;10.956;2023-07-31T13:17:33;21.00;76.60
67901;DHT22;54700;51.796;10.956;2023-07-31T13:20:03;21.30;75.70
67901;DHT22;54700;51.796;10.956;2023-07-31T13:22:30;21.60;73.40
67901;DHT22;54700;51.796;10.956;2023-07-31T13:24:57;21.90;73.90
67901;DHT22;54700;51.796;10.956;2023-07-31T13:27:24;22.20;71.50
67901;DHT22;54700;51.796;10.956;2023-07-31T13:29:51;22.20;70.40
67901;DHT22;54700;51.796;10.956;2023-07-31T13:32:20;22.30;70.20
67901;DHT22;54700;51.796;10.956;2023-07-31T13:34:47;22.30;70.10
67901;DHT22;54700;51.796;10.956;2023-07-31T13:37:15;22.00;69.00
67901;DHT22;54700;51.796;10.956;2023-07-31T13:39:42;21.90;70.20
67901;DHT22;54700;51.796;10.956;2023-07-31T13:42:09;22.10;71.70
67901;DHT22;54700;51.796;10.956;2023-07-31T13:44:37;22.10;69.70
67901;DHT22;54700;51.796;10.956;2023-07-31T13:47:04;22.20;69.00
67901;DHT22;54700;51.796;10.956;2023-07-31T13:49:33;22.20;68.10
67901;DHT22;54700;51.796;10.956;2023-07-31T13:52:00;22.00;68.40
67901;DHT22;54700;51.796;10.956;2023-07-31T13:54:27;21.80;69.30
67901;DHT22;54700;51.796;10.956;2023-07-31T13:56:55;21.50;70.50
67901;DHT22;54700;51.796;10.956;2023-07-31T13:59:22;21.50;72.50
67901;DHT22;54700;51.796;10.956;2023-07-31T14:01:49;21.40;73.10
67901;DHT22;54700;51.796;10.956;2023-07-31T14:04:16;21.20;74.70
67901;DHT22;54700;51.796;10.956;2023-07-31T14:06:45;21.00;75.60
67901;DHT22;54700;51.796;10.956;2023-07-31T14:09:13;21.00;77.30
67901;DHT22;54700;51.796;10.956;2023-07-31T14:11:40;21.10;77.10
67901;DHT22;54700;51.796;10.956;2023-07-31T14:14:08;21.10;76.90
67901;DHT22;54700;51.796;10.956;2023-07-31T14:16:36;21.10;78.30
67901;DHT22;54700;51.796;10.956;2023-07-31T14:19:03;21.00;78.30
67901;DHT22;54700;51.796;10.956;2023-07-31T14:21:30;20.90;79.40
67901;DHT22;54700;51.796;10.956;2023-07-31T14:23:59;20.60;80.90
67901;DHT22;54700;51.796;10.956;2023-07-31T14:26:26;20.30;82.90
67901;DHT22;54700;51.796;10.956;2023-07-31T14:28:53;20.40;84.50
67901;DHT22;54700;51.796;10.956;2023-07-31T14:31:20;20.40;86.30
67901;DHT22;54700;51.796;10.956;2023-07-31T14:33:47;20.60;84.70
67901;DHT22;54700;51.796;10.956;2023-07-31T14:36:13;20.50;83.80
67901;DHT22;54700;51.796;10.956;2023-07-31T14:38:40;20.40;84.70
67901;DHT22;54700;51.796;10.956;2023-07-31T14:41:08;20.50;85.10
67901;DHT22;54700;51.796;10.956;2023-07-31T14:43:35;20.70;84.30
67901;DHT22;54700;51.796;10.956;2023-07-31T14:46:02;20.80;83.10
67901;DHT22;54700;51.796;10.956;2023-07-31T14:48:29;20.80;84.30
67901;DHT22;54700;51.796;10.956;2023-07-31T14:50:56;20.70;86.20
67901;DHT22;54700;51.796;10.956;2023-07-31T14:53:23;20.50;86.20
67901;DHT22;54700;51.796;10.956;2023-07-31T14:55:50;20.50;86.90
67901;DHT22;54700;51.796;10.956;2023-07-31T14:58:18;20.50;86.30
67901;DHT22;54700;51.796;10.956;2023-07-31T15:00:45;20.50;85.10
67901;DHT22;54700;51.796;10.956;2023-07-31T15:03:12;20.60;84.30
67901;DHT22;54700;51.796;10.956;2023-07-31T15:05:38;20.50;84.80
67901;DHT22;54700;51.796;10.956;2023-07-31T15:08:05;20.50;84.70
67901;DHT22;54700;51.796;10.956;2023-07-31T15:10:32;20.50;83.80
67901;DHT22;54700;51.796;10.956;2023-07-31T15:12:59;20.50;84.20
67901;DHT22;54700;51.796;10.956;2023-07-31T15:15:29;20.40;83.90
67901;DHT22;54700;51.796;10.956;2023-07-31T15:17:56;20.40;84.60
67901;DHT22;54700;51.796;10.956;2023-07-31T15:20:22;20.40;83.90